createdAt,value
2017-11-17T00:00:51.290Z,4.10
2017-11-17T00:03:19.997Z,4.10
2017-11-17T00:05:47.564Z,4.10
2017-11-17T00:08:15.896Z,4.10
2017-11-17T00:10:43.485Z,4.10
2017-11-17T00:13:11.060Z,4.10
2017-11-17T00:15:38.983Z,4.10
2017-11-17T00:18:06.547Z,4.10
2017-11-17T00:20:34.132Z,4.10
2017-11-17T00:23:01.701Z,4.20
2017-11-17T00:25:32.015Z,4.20
2017-11-17T00:27:59.709Z,4.10
2017-11-17T00:30:28.960Z,4.20
2017-11-17T00:32:56.542Z,4.20
2017-11-17T00:35:24.148Z,4.20
2017-11-17T00:37:51.716Z,4.20
2017-11-17T00:40:19.333Z,4.20
2017-11-17T00:42:46.928Z,4.20
2017-11-17T00:45:14.491Z,4.20
2017-11-17T00:47:42.115Z,4.20
2017-11-17T00:50:09.680Z,4.20
2017-11-17T00:52:37.268Z,4.20
2017-11-17T00:55:05.601Z,4.20
2017-11-17T00:57:33.204Z,4.20
2017-11-17T01:00:01.531Z,4.20
2017-11-17T01:02:31.557Z,4.20
2017-11-17T01:04:59.144Z,4.20
2017-11-17T01:07:26.711Z,4.30
2017-11-17T01:09:55.069Z,4.30
2017-11-17T01:12:22.632Z,4.20
2017-11-17T01:14:50.230Z,4.30
2017-11-17T01:17:17.809Z,4.30
2017-11-17T01:19:45.419Z,4.30
2017-11-17T01:22:12.992Z,4.30
2017-11-17T01:24:41.663Z,4.30
2017-11-17T01:27:09.236Z,4.30
2017-11-17T01:29:37.578Z,4.30
2017-11-17T01:32:05.172Z,4.30
2017-11-17T01:34:32.775Z,4.30
2017-11-17T01:37:00.336Z,4.30
2017-11-17T01:39:28.829Z,4.30
2017-11-17T01:41:56.417Z,4.30
2017-11-17T01:44:24.023Z,4.30
2017-11-17T01:46:52.373Z,4.30
2017-11-17T01:49:19.932Z,4.30
2017-11-17T01:51:48.512Z,4.20
2017-11-17T01:54:16.076Z,4.20
2017-11-17T01:56:43.672Z,4.30
2017-11-17T01:59:11.260Z,4.30
2017-11-17T02:01:38.863Z,4.30
2017-11-17T02:04:07.272Z,4.30
2017-11-17T02:06:35.599Z,4.30
2017-11-17T02:09:03.212Z,4.30
2017-11-17T02:11:32.583Z,4.30
2017-11-17T02:14:00.303Z,4.30
2017-11-17T02:16:28.179Z,4.30
2017-11-17T02:18:56.043Z,4.30
2017-11-17T02:21:24.016Z,4.40
2017-11-17T02:23:51.609Z,4.40
2017-11-17T02:26:19.977Z,4.30
2017-11-17T02:28:47.589Z,4.30
2017-11-17T02:31:15.158Z,4.30
2017-11-17T02:33:42.730Z,4.40
2017-11-17T02:36:10.326Z,4.40
2017-11-17T02:38:39.007Z,4.40
2017-11-17T02:41:06.605Z,4.30
2017-11-17T02:43:34.952Z,4.30
2017-11-17T02:46:02.559Z,4.30
2017-11-17T02:48:31.289Z,4.30
2017-11-17T02:50:58.877Z,4.30
2017-11-17T02:53:26.448Z,4.30
2017-11-17T02:55:55.022Z,4.30
2017-11-17T02:58:22.594Z,4.30
2017-11-17T03:00:50.937Z,4.30
2017-11-17T03:03:19.464Z,4.30
2017-11-17T03:05:47.801Z,4.30
2017-11-17T03:08:15.406Z,4.30
2017-11-17T03:10:43.763Z,4.30
2017-11-17T03:13:11.365Z,4.30
2017-11-17T03:15:38.932Z,4.30
2017-11-17T03:18:06.525Z,4.30
2017-11-17T03:20:34.102Z,4.40
2017-11-17T03:23:01.706Z,4.40
2017-11-17T03:25:31.653Z,4.40
2017-11-17T03:27:59.249Z,4.30
2017-11-17T03:30:26.822Z,4.40
2017-11-17T03:32:55.274Z,4.40
2017-11-17T03:35:22.849Z,4.40
2017-11-17T03:37:50.672Z,4.40
2017-11-17T03:40:18.245Z,4.40
2017-11-17T03:42:45.814Z,4.40
2017-11-17T03:45:13.409Z,4.40
2017-11-17T03:47:41.749Z,4.40
2017-11-17T03:50:09.341Z,4.30
2017-11-17T03:52:37.678Z,4.30
2017-11-17T03:55:05.278Z,4.30
2017-11-17T03:57:32.848Z,4.40
2017-11-17T04:00:01.213Z,4.40
2017-11-17T04:02:30.797Z,4.40
2017-11-17T04:04:58.413Z,4.30
2017-11-17T04:07:25.985Z,4.40
2017-11-17T04:09:53.552Z,4.40
2017-11-17T04:12:21.148Z,4.40
2017-11-17T04:14:48.717Z,4.40
2017-11-17T04:17:16.309Z,4.40
2017-11-17T04:19:44.644Z,4.40
2017-11-17T04:22:12.240Z,4.30
2017-11-17T04:24:40.606Z,4.40
2017-11-17T04:27:08.238Z,4.40
2017-11-17T04:29:35.812Z,4.40
2017-11-17T04:32:03.802Z,4.40
2017-11-17T04:34:32.674Z,4.40
2017-11-17T04:37:00.250Z,4.40
2017-11-17T04:39:27.859Z,4.40
2017-11-17T04:41:55.484Z,4.40
2017-11-17T04:44:23.850Z,4.40
2017-11-17T04:46:51.425Z,4.40
2017-11-17T04:49:19.892Z,4.40
2017-11-17T04:51:47.464Z,4.40
2017-11-17T04:54:15.325Z,4.40
2017-11-17T04:56:42.989Z,4.50
2017-11-17T04:59:10.557Z,4.50
2017-11-17T05:01:38.925Z,4.50
2017-11-17T05:04:07.593Z,4.50
2017-11-17T05:06:35.529Z,4.50
2017-11-17T05:09:03.101Z,4.50
2017-11-17T05:11:32.621Z,4.50
2017-11-17T05:14:00.220Z,4.50
2017-11-17T05:16:27.789Z,4.50
2017-11-17T05:18:56.161Z,4.50
2017-11-17T05:21:24.534Z,4.50
2017-11-17T05:23:52.873Z,4.60
2017-11-17T05:26:20.472Z,4.50
2017-11-17T05:28:48.040Z,4.60
2017-11-17T05:31:16.413Z,4.70
2017-11-17T05:33:43.988Z,4.60
2017-11-17T05:36:12.352Z,4.70
2017-11-17T05:38:39.930Z,4.70
2017-11-17T05:41:08.295Z,4.70
2017-11-17T05:43:36.642Z,4.70
2017-11-17T05:46:04.238Z,4.60
2017-11-17T05:48:33.612Z,4.60
2017-11-17T05:51:01.211Z,4.60
2017-11-17T05:53:29.545Z,4.70
2017-11-17T05:55:57.142Z,4.70
2017-11-17T05:58:25.485Z,4.80
2017-11-17T06:00:53.078Z,4.70
2017-11-17T06:03:20.646Z,4.80
2017-11-17T06:05:49.013Z,5.00
2017-11-17T06:08:16.589Z,5.00
2017-11-17T06:10:44.944Z,5.30
2017-11-17T06:13:12.617Z,5.20
2017-11-17T06:15:41.725Z,5.40
2017-11-17T06:18:10.066Z,5.50
2017-11-17T06:20:37.671Z,5.40
2017-11-17T06:23:06.013Z,5.50
2017-11-17T06:25:35.031Z,5.50
2017-11-17T06:28:02.597Z,5.50
2017-11-17T06:30:32.669Z,5.60
2017-11-17T06:33:00.271Z,5.50
2017-11-17T06:35:27.844Z,5.60
2017-11-17T06:37:56.206Z,5.60
2017-11-17T06:40:23.770Z,5.60
2017-11-17T06:42:51.433Z,5.60
2017-11-17T06:45:19.017Z,5.60
2017-11-17T06:47:47.381Z,5.60
2017-11-17T06:50:15.721Z,5.60
2017-11-17T06:52:43.286Z,5.60
2017-11-17T06:55:10.881Z,5.70
2017-11-17T06:57:39.214Z,5.60
2017-11-17T07:00:06.809Z,5.60
2017-11-17T07:02:34.377Z,5.60
2017-11-17T07:05:02.742Z,5.60
2017-11-17T07:07:31.856Z,5.60
2017-11-17T07:10:00.226Z,5.70
2017-11-17T07:12:27.891Z,5.70
2017-11-17T07:14:55.506Z,5.80
2017-11-17T07:17:23.073Z,5.90
2017-11-17T07:19:50.641Z,6.00
2017-11-17T07:22:18.233Z,6.10
2017-11-17T07:24:47.309Z,6.10
2017-11-17T07:27:14.901Z,6.10
2017-11-17T07:29:43.269Z,6.20
2017-11-17T07:32:10.864Z,6.20
2017-11-17T07:34:38.433Z,6.40
2017-11-17T07:37:06.066Z,6.60
2017-11-17T07:39:33.721Z,6.70
2017-11-17T07:42:01.310Z,6.90
2017-11-17T07:44:28.933Z,7.00
2017-11-17T07:46:56.517Z,7.00
2017-11-17T07:49:24.852Z,6.80
2017-11-17T07:51:52.441Z,6.80
2017-11-17T07:54:20.002Z,6.80
2017-11-17T07:56:48.373Z,6.90
2017-11-17T07:59:15.943Z,6.90
2017-11-17T08:01:43.529Z,7.00
2017-11-17T08:04:11.159Z,7.10
2017-11-17T08:06:38.757Z,7.10
2017-11-17T08:09:06.354Z,7.20
2017-11-17T08:11:33.985Z,7.40
2017-11-17T08:14:01.544Z,7.40
2017-11-17T08:16:29.132Z,7.40
2017-11-17T08:18:56.729Z,7.30
2017-11-17T08:21:24.601Z,7.40
2017-11-17T08:23:52.170Z,8.00
2017-11-17T08:26:20.501Z,9.80
2017-11-17T08:28:48.089Z,9.80
2017-11-17T08:31:15.653Z,10.20
2017-11-17T08:33:43.244Z,10.00
2017-11-17T08:36:11.577Z,8.90
2017-11-17T08:38:39.175Z,8.90
2017-11-17T08:41:07.505Z,8.00
2017-11-17T08:43:35.088Z,8.00
2017-11-17T08:46:02.662Z,7.80
2017-11-17T08:48:32.262Z,7.80
2017-11-17T08:50:59.822Z,7.80
2017-11-17T08:53:27.401Z,7.90
2017-11-17T08:55:55.825Z,8.20
2017-11-17T08:58:23.393Z,8.20
2017-11-17T09:00:51.097Z,8.50
2017-11-17T09:03:18.676Z,8.60
2017-11-17T09:05:47.037Z,8.80
2017-11-17T09:08:14.601Z,8.80
2017-11-17T09:10:42.962Z,11.40
2017-11-17T09:13:10.637Z,11.40
2017-11-17T09:15:38.235Z,13.50
2017-11-17T09:18:05.854Z,13.80
2017-11-17T09:20:33.841Z,12.90
2017-11-17T09:23:02.181Z,11.20
2017-11-17T09:25:29.780Z,11.20
2017-11-17T09:27:58.117Z,10.80
2017-11-17T09:30:25.713Z,10.80
2017-11-17T09:32:53.374Z,11.10
2017-11-17T09:35:20.970Z,11.20
2017-11-17T09:37:48.533Z,11.80
2017-11-17T09:40:16.253Z,11.30
2017-11-17T09:42:43.921Z,10.70
2017-11-17T09:45:12.257Z,10.70
2017-11-17T09:47:39.850Z,10.70
2017-11-17T09:50:07.450Z,11.20
2017-11-17T09:52:35.053Z,11.60
2017-11-17T09:55:02.625Z,11.70
2017-11-17T09:57:32.656Z,11.20
2017-11-17T10:00:00.382Z,11.10
2017-11-17T10:02:27.985Z,11.00
2017-11-17T10:04:55.558Z,10.70
2017-11-17T10:07:23.925Z,10.40
2017-11-17T10:09:52.253Z,10.80
2017-11-17T10:12:19.861Z,10.70
2017-11-17T10:14:48.276Z,11.90
2017-11-17T10:17:15.904Z,11.90
2017-11-17T10:19:43.570Z,12.00
2017-11-17T10:22:11.230Z,11.80
2017-11-17T10:24:38.898Z,12.00
2017-11-17T10:27:06.502Z,12.40
2017-11-17T10:29:34.094Z,14.00
2017-11-17T10:32:01.682Z,15.90
2017-11-17T10:34:31.193Z,15.50
2017-11-17T10:36:59.528Z,15.40
2017-11-17T10:39:27.117Z,15.40
2017-11-17T10:41:55.074Z,15.20
2017-11-17T10:44:22.941Z,15.00
2017-11-17T10:46:52.041Z,14.20
2017-11-17T10:49:19.818Z,14.20
2017-11-17T10:51:47.385Z,13.90
2017-11-17T10:54:15.289Z,13.50
2017-11-17T10:56:42.880Z,14.50
2017-11-17T10:59:16.267Z,17.30
2017-11-17T11:01:43.869Z,20.00
2017-11-17T11:04:13.910Z,22.50
2017-11-17T11:06:42.270Z,22.40
2017-11-17T11:09:10.649Z,22.10
2017-11-17T11:11:44.578Z,23.90
2017-11-17T11:14:12.153Z,23.80
2017-11-17T11:16:40.066Z,25.10
2017-11-17T11:19:07.744Z,24.70
2017-11-17T11:21:35.313Z,25.10
2017-11-17T11:24:03.673Z,23.20
2017-11-17T11:26:31.801Z,23.10
2017-11-17T11:28:59.422Z,21.30
2017-11-17T11:31:26.988Z,20.10
2017-11-17T11:33:55.369Z,19.80
2017-11-17T11:36:23.701Z,19.70
2017-11-17T11:38:51.272Z,19.70
2017-11-17T11:41:18.860Z,18.60
2017-11-17T11:43:46.529Z,18.00
2017-11-17T11:46:14.129Z,18.90
2017-11-17T11:48:41.692Z,18.70
2017-11-17T11:51:09.289Z,17.70
2017-11-17T11:53:36.862Z,16.30
2017-11-17T11:56:05.973Z,15.60
2017-11-17T11:58:34.733Z,15.90
2017-11-17T12:01:02.353Z,15.90
2017-11-17T12:03:30.044Z,17.20
2017-11-17T12:05:57.645Z,19.90
2017-11-17T12:08:25.301Z,22.50
2017-11-17T12:10:52.925Z,24.50
2017-11-17T12:13:20.691Z,25.80
2017-11-17T12:15:48.350Z,27.60
2017-11-17T12:18:15.912Z,28.60
2017-11-17T12:20:43.633Z,29.20
2017-11-17T12:23:11.973Z,29.70
2017-11-17T12:25:39.677Z,29.60
2017-11-17T12:28:08.325Z,29.40
2017-11-17T12:30:35.906Z,29.40
2017-11-17T12:33:03.634Z,29.60
2017-11-17T12:35:33.566Z,29.90
2017-11-17T12:38:01.313Z,29.90
2017-11-17T12:40:28.881Z,28.90
2017-11-17T12:42:56.546Z,28.10
2017-11-17T12:45:24.122Z,28.20
2017-11-17T12:47:51.736Z,28.10
2017-11-17T12:50:19.357Z,28.10
2017-11-17T12:52:47.017Z,28.70
2017-11-17T12:55:14.738Z,28.80
2017-11-17T12:57:42.785Z,28.10
2017-11-17T13:00:11.143Z,25.50
2017-11-17T13:02:39.501Z,24.80
2017-11-17T13:05:07.185Z,24.80
2017-11-17T13:07:34.753Z,23.70
2017-11-17T13:10:03.093Z,20.40
2017-11-17T13:12:31.983Z,20.30
2017-11-17T13:14:59.573Z,19.40
2017-11-17T13:17:28.669Z,18.80
2017-11-17T13:19:56.235Z,18.80
2017-11-17T13:22:23.852Z,18.20
2017-11-17T13:24:51.421Z,17.20
2017-11-17T13:27:19.042Z,15.90
2017-11-17T13:29:46.608Z,15.30
2017-11-17T13:32:14.260Z,16.10
2017-11-17T13:34:42.752Z,17.40
2017-11-17T13:37:10.346Z,17.40
2017-11-17T13:39:38.066Z,16.20
2017-11-17T13:42:05.773Z,14.90
2017-11-17T13:44:33.781Z,13.80
2017-11-17T13:47:01.362Z,13.00
2017-11-17T13:49:29.787Z,11.70
2017-11-17T13:51:57.361Z,11.60
2017-11-17T13:54:24.981Z,11.10
2017-11-17T13:56:52.565Z,10.80
2017-11-17T13:59:20.165Z,10.40
2017-11-17T14:01:48.654Z,9.90
2017-11-17T14:04:16.985Z,9.70
2017-11-17T14:06:44.573Z,9.70
2017-11-17T14:09:12.137Z,9.60
2017-11-17T14:11:39.730Z,9.40
2017-11-17T14:14:08.369Z,9.20
2017-11-17T14:16:35.952Z,9.10
2017-11-17T14:19:03.527Z,8.90
2017-11-17T14:21:32.061Z,8.70
2017-11-17T14:23:59.617Z,8.50
2017-11-17T14:26:27.209Z,8.40
2017-11-17T14:28:55.601Z,8.10
2017-11-17T14:31:24.754Z,8.00
2017-11-17T14:33:52.325Z,7.90
2017-11-17T14:36:20.262Z,7.90
2017-11-17T14:38:47.826Z,7.80
2017-11-17T14:41:15.605Z,7.70
2017-11-17T14:43:43.196Z,7.50
2017-11-17T14:46:11.573Z,7.30
2017-11-17T14:48:39.169Z,7.30
2017-11-17T14:51:07.529Z,7.20
2017-11-17T14:53:35.120Z,7.10
2017-11-17T14:56:03.453Z,7.00
2017-11-17T14:58:31.993Z,7.00
2017-11-17T15:00:59.557Z,6.90
2017-11-17T15:03:27.286Z,6.80
2017-11-17T15:05:55.630Z,6.70
2017-11-17T15:08:23.205Z,6.70
2017-11-17T15:10:50.798Z,6.60
2017-11-17T15:13:19.154Z,6.40
2017-11-17T15:15:47.017Z,6.40
2017-11-17T15:18:14.981Z,6.20
2017-11-17T15:20:42.657Z,6.10
2017-11-17T15:23:10.217Z,6.00
2017-11-17T15:25:37.821Z,5.90
2017-11-17T15:28:05.445Z,5.80
2017-11-17T15:30:34.620Z,5.80
2017-11-17T15:33:02.184Z,5.70
2017-11-17T15:35:29.769Z,5.70
2017-11-17T15:37:57.338Z,5.70
2017-11-17T15:40:25.906Z,5.50
2017-11-17T15:42:53.464Z,5.50
2017-11-17T15:45:21.026Z,5.40
2017-11-17T15:47:48.613Z,5.30
2017-11-17T15:50:16.937Z,5.10
2017-11-17T15:52:44.561Z,5.00
2017-11-17T15:55:12.166Z,5.00
2017-11-17T15:57:39.781Z,4.90
2017-11-17T16:00:07.375Z,4.80
2017-11-17T16:02:34.978Z,4.80
2017-11-17T16:05:02.558Z,4.80
2017-11-17T16:07:31.082Z,4.70
2017-11-17T16:09:58.657Z,4.60
2017-11-17T16:12:26.261Z,4.50
2017-11-17T16:14:54.617Z,4.40
2017-11-17T16:17:22.295Z,4.40
2017-11-17T16:19:50.630Z,4.30
2017-11-17T16:22:18.246Z,4.30
2017-11-17T16:24:46.573Z,4.20
2017-11-17T16:27:14.173Z,4.20
2017-11-17T16:29:41.762Z,4.20
2017-11-17T16:32:09.717Z,4.20
2017-11-17T16:34:38.117Z,4.30
2017-11-17T16:37:05.826Z,4.30
2017-11-17T16:39:34.712Z,4.50
2017-11-17T16:42:02.309Z,4.50
2017-11-17T16:44:32.214Z,4.50
2017-11-17T16:47:00.545Z,4.40
2017-11-17T16:49:28.140Z,4.40
2017-11-17T16:51:56.034Z,4.40
2017-11-17T16:54:24.393Z,4.30
2017-11-17T16:56:51.965Z,4.20
2017-11-17T16:59:20.413Z,4.20
2017-11-17T17:01:47.993Z,4.20
2017-11-17T17:04:15.578Z,4.20
2017-11-17T17:06:43.945Z,4.10
2017-11-17T17:09:12.275Z,4.10
2017-11-17T17:11:39.877Z,4.10
2017-11-17T17:14:07.441Z,4.10
2017-11-17T17:16:35.037Z,4.00
2017-11-17T17:19:02.601Z,4.00
2017-11-17T17:21:30.964Z,4.00
2017-11-17T17:23:58.525Z,4.00
2017-11-17T17:26:26.111Z,4.00
2017-11-17T17:28:53.676Z,3.90
2017-11-17T17:31:21.243Z,3.90
2017-11-17T17:33:48.864Z,3.80
2017-11-17T17:36:17.218Z,3.80
2017-11-17T17:38:44.804Z,3.70
2017-11-17T17:41:13.134Z,3.70
2017-11-17T17:43:40.740Z,3.70
2017-11-17T17:46:09.077Z,3.70
2017-11-17T17:48:36.822Z,3.70
2017-11-17T17:51:04.397Z,3.70
2017-11-17T17:53:32.765Z,3.90
2017-11-17T17:56:00.365Z,3.80
2017-11-17T17:58:28.697Z,3.80
2017-11-17T18:00:56.289Z,3.70
2017-11-17T18:03:23.858Z,3.70
2017-11-17T18:05:51.459Z,3.70
2017-11-17T18:08:19.046Z,3.60
2017-11-17T18:10:46.638Z,3.60
2017-11-17T18:13:14.206Z,3.60
2017-11-17T18:15:41.800Z,3.60
2017-11-17T18:18:09.387Z,3.60
2017-11-17T18:20:36.977Z,3.50
2017-11-17T18:23:04.549Z,3.50
2017-11-17T18:25:34.909Z,3.70
2017-11-17T18:28:03.310Z,3.80
2017-11-17T18:30:31.403Z,3.80
2017-11-17T18:32:58.964Z,3.90
2017-11-17T18:35:26.525Z,4.10
2017-11-17T18:37:54.194Z,4.20
2017-11-17T18:40:21.733Z,4.40
2017-11-17T18:42:49.352Z,4.50
2017-11-17T18:45:17.720Z,4.60
2017-11-17T18:47:45.314Z,4.60
2017-11-17T18:50:12.903Z,4.60
2017-11-17T18:52:40.502Z,4.60
2017-11-17T18:55:08.883Z,4.60
2017-11-17T18:57:36.500Z,4.50
2017-11-17T19:00:04.099Z,4.60
2017-11-17T19:02:32.860Z,4.50
2017-11-17T19:05:01.150Z,4.50
2017-11-17T19:07:28.821Z,4.50
2017-11-17T19:09:56.481Z,4.40
2017-11-17T19:12:24.025Z,4.40
2017-11-17T19:14:51.662Z,4.40
2017-11-17T19:17:19.973Z,4.30
2017-11-17T19:19:47.561Z,4.30
2017-11-17T19:22:15.134Z,4.30
2017-11-17T19:24:44.424Z,4.30
2017-11-17T19:27:12.765Z,4.30
2017-11-17T19:29:40.370Z,4.20
2017-11-17T19:32:08.714Z,4.20
2017-11-17T19:34:36.306Z,4.20
2017-11-17T19:37:04.674Z,4.10
2017-11-17T19:39:34.145Z,4.10
2017-11-17T19:42:01.726Z,4.10
2017-11-17T19:44:29.293Z,4.10
2017-11-17T19:46:56.889Z,4.20
2017-11-17T19:49:25.310Z,4.20
2017-11-17T19:51:52.907Z,4.20
2017-11-17T19:54:21.135Z,4.10
2017-11-17T19:56:48.776Z,4.10
2017-11-17T19:59:16.457Z,4.10
2017-11-17T20:01:44.045Z,4.00
2017-11-17T20:04:11.664Z,3.90
2017-11-17T20:06:39.258Z,3.90
2017-11-17T20:09:06.885Z,3.90
2017-11-17T20:11:34.529Z,3.80
2017-11-17T20:14:02.860Z,3.70
2017-11-17T20:16:33.094Z,3.70
2017-11-17T20:19:00.665Z,3.60
2017-11-17T20:21:29.771Z,3.50
2017-11-17T20:23:57.353Z,3.50
2017-11-17T20:26:25.743Z,3.50
2017-11-17T20:28:53.314Z,3.50
2017-11-17T20:31:20.928Z,3.40
2017-11-17T20:33:48.574Z,3.20
2017-11-17T20:36:16.138Z,3.10
2017-11-17T20:38:43.787Z,3.10
2017-11-17T20:41:11.386Z,2.90
2017-11-17T20:43:38.977Z,2.80
2017-11-17T20:46:06.544Z,2.70
2017-11-17T20:48:34.133Z,2.70
2017-11-17T20:51:01.725Z,2.60
2017-11-17T20:53:29.314Z,2.50
2017-11-17T20:55:57.651Z,2.50
2017-11-17T20:58:27.045Z,2.40
2017-11-17T21:00:54.670Z,2.40
2017-11-17T21:03:22.289Z,2.30
2017-11-17T21:05:49.904Z,2.30
2017-11-17T21:08:17.497Z,2.20
2017-11-17T21:10:45.121Z,2.10
2017-11-17T21:13:12.685Z,2.10
2017-11-17T21:15:40.325Z,2.00
2017-11-17T21:18:08.670Z,2.00
2017-11-17T21:20:37.029Z,2.10
2017-11-17T21:23:04.619Z,2.10
2017-11-17T21:25:34.653Z,2.10
2017-11-17T21:28:02.990Z,2.10
2017-11-17T21:30:32.816Z,2.20
2017-11-17T21:33:00.377Z,2.20
2017-11-17T21:35:27.965Z,2.10
2017-11-17T21:37:56.293Z,1.90
2017-11-17T21:40:23.904Z,1.80
2017-11-17T21:42:52.329Z,1.60
2017-11-17T21:45:19.902Z,1.60
2017-11-17T21:47:47.491Z,1.50
2017-11-17T21:50:15.057Z,1.40
2017-11-17T21:52:42.649Z,1.40
2017-11-17T21:55:10.217Z,1.30
2017-11-17T21:57:37.809Z,1.20
2017-11-17T22:00:05.381Z,1.20
2017-11-17T22:02:34.489Z,1.20
2017-11-17T22:05:02.820Z,1.30
2017-11-17T22:07:32.100Z,1.20
2017-11-17T22:09:59.661Z,1.30
2017-11-17T22:12:27.246Z,1.30
2017-11-17T22:14:54.812Z,1.30
2017-11-17T22:17:22.405Z,1.30
2017-11-17T22:19:49.968Z,1.20
2017-11-17T22:22:17.557Z,1.30
2017-11-17T22:24:45.885Z,1.20
2017-11-17T22:27:13.469Z,1.20
2017-11-17T22:29:41.041Z,1.30
2017-11-17T22:32:08.624Z,1.30
2017-11-17T22:34:36.957Z,1.20
2017-11-17T22:37:04.545Z,1.20
2017-11-17T22:39:33.075Z,1.20
2017-11-17T22:42:00.661Z,1.20
2017-11-17T22:44:28.234Z,1.30
2017-11-17T22:46:55.829Z,1.30
2017-11-17T22:49:23.393Z,1.30
2017-11-17T22:51:50.982Z,1.30
2017-11-17T22:54:18.545Z,1.00
2017-11-17T22:56:46.133Z,0.90
2017-11-17T22:59:13.705Z,0.80
2017-11-17T23:01:41.299Z,0.80
2017-11-17T23:04:08.865Z,0.80
2017-11-17T23:06:36.458Z,0.80
2017-11-17T23:09:04.030Z,0.80
2017-11-17T23:11:32.932Z,0.80
2017-11-17T23:14:00.549Z,0.70
2017-11-17T23:16:28.115Z,0.70
2017-11-17T23:18:55.708Z,0.60
2017-11-17T23:21:23.334Z,0.60
2017-11-17T23:23:50.921Z,0.60
2017-11-17T23:26:18.490Z,0.50
2017-11-17T23:28:46.087Z,0.50
2017-11-17T23:31:13.685Z,0.50
2017-11-17T23:33:41.269Z,0.50
2017-11-17T23:36:09.134Z,0.50
2017-11-17T23:38:36.724Z,0.50
2017-11-17T23:41:04.286Z,0.40
2017-11-17T23:43:33.562Z,0.30
2017-11-17T23:46:01.126Z,0.40
2017-11-17T23:48:28.713Z,0.40
2017-11-17T23:50:56.305Z,0.40
2017-11-17T23:53:23.906Z,0.30
2017-11-17T23:55:51.468Z,0.30
2017-11-17T23:58:19.057Z,0.30
